sensor_id;sensor_type;location;lat;lon;timestamp;temperature;humidity
4433;DHT22;2229;48.708;9.706;2023-06-14T00:02:19;15.40;59.20
4433;DHT22;2229;48.708;9.706;2023-06-14T00:04:47;15.30;59.10
4433;DHT22;2229;48.708;9.706;2023-06-14T00:07:17;15.30;59.10
4433;DHT22;2229;48.708;9.706;2023-06-14T00:09:45;15.20;59.10
4433;DHT22;2229;48.708;9.706;2023-06-14T00:12:13;15.20;59.40
4433;DHT22;2229;48.708;9.706;2023-06-14T00:14:40;15.20;59.80
4433;DHT22;2229;48.708;9.706;2023-06-14T00:17:07;15.20;60.00
4433;DHT22;2229;48.708;9.706;2023-06-14T00:19:35;15.10;59.90
4433;DHT22;2229;48.708;9.706;2023-06-14T00:22:02;15.10;59.80
4433;DHT22;2229;48.708;9.706;2023-06-14T00:24:30;15.10;59.80
4433;DHT22;2229;48.708;9.706;2023-06-14T00:26:58;15.10;60.20
4433;DHT22;2229;48.708;9.706;2023-06-14T00:29:26;15.00;60.40
4433;DHT22;2229;48.708;9.706;2023-06-14T00:31:53;15.00;60.70
4433;DHT22;2229;48.708;9.706;2023-06-14T00:34:20;15.00;60.70
4433;DHT22;2229;48.708;9.706;2023-06-14T00:36:47;15.00;60.90
4433;DHT22;2229;48.708;9.706;2023-06-14T00:39:14;14.90;60.90
4433;DHT22;2229;48.708;9.706;2023-06-14T00:41:42;14.90;61.00
4433;DHT22;2229;48.708;9.706;2023-06-14T00:44:10;14.90;61.00
4433;DHT22;2229;48.708;9.706;2023-06-14T00:46:38;14.90;60.90
4433;DHT22;2229;48.708;9.706;2023-06-14T00:49:06;14.90;61.00
4433;DHT22;2229;48.708;9.706;2023-06-14T00:51:33;14.90;61.40
4433;DHT22;2229;48.708;9.706;2023-06-14T00:54:00;14.80;61.60
4433;DHT22;2229;48.708;9.706;2023-06-14T00:56:28;14.80;62.60
4433;DHT22;2229;48.708;9.706;2023-06-14T00:58:56;14.80;62.10
4433;DHT22;2229;48.708;9.706;2023-06-14T01:01:26;14.70;62.30
4433;DHT22;2229;48.708;9.706;2023-06-14T01:03:54;14.70;62.50
4433;DHT22;2229;48.708;9.706;2023-06-14T01:06:29;14.70;62.80
4433;DHT22;2229;48.708;9.706;2023-06-14T01:09:06;14.60;62.90
4433;DHT22;2229;48.708;9.706;2023-06-14T01:11:44;14.60;63.10
4433;DHT22;2229;48.708;9.706;2023-06-14T01:14:14;14.50;63.20
4433;DHT22;2229;48.708;9.706;2023-06-14T01:16:47;14.50;63.50
4433;DHT22;2229;48.708;9.706;2023-06-14T01:19:16;14.40;63.60
4433;DHT22;2229;48.708;9.706;2023-06-14T01:21:45;14.40;63.80
4433;DHT22;2229;48.708;9.706;2023-06-14T01:24:18;14.30;63.70
4433;DHT22;2229;48.708;9.706;2023-06-14T01:26:52;14.20;63.60
4433;DHT22;2229;48.708;9.706;2023-06-14T01:29:22;14.20;63.60
4433;DHT22;2229;48.708;9.706;2023-06-14T01:31:53;14.20;63.60
4433;DHT22;2229;48.708;9.706;2023-06-14T01:34:21;14.10;63.60
4433;DHT22;2229;48.708;9.706;2023-06-14T01:36:52;14.10;63.90
4433;DHT22;2229;48.708;9.706;2023-06-14T01:39:23;14.10;64.20
4433;DHT22;2229;48.708;9.706;2023-06-14T01:41:51;14.00;64.30
4433;DHT22;2229;48.708;9.706;2023-06-14T01:44:20;14.00;65.30
4433;DHT22;2229;48.708;9.706;2023-06-14T01:46:48;14.00;64.70
4433;DHT22;2229;48.708;9.706;2023-06-14T01:49:15;13.90;64.70
4433;DHT22;2229;48.708;9.706;2023-06-14T01:51:42;13.80;64.60
4433;DHT22;2229;48.708;9.706;2023-06-14T01:54:10;13.80;64.70
4433;DHT22;2229;48.708;9.706;2023-06-14T01:56:39;13.80;64.70
4433;DHT22;2229;48.708;9.706;2023-06-14T01:59:06;13.70;64.80
4433;DHT22;2229;48.708;9.706;2023-06-14T02:01:34;13.70;65.00
4433;DHT22;2229;48.708;9.706;2023-06-14T02:04:02;13.70;65.10
4433;DHT22;2229;48.708;9.706;2023-06-14T02:06:29;13.70;65.20
4433;DHT22;2229;48.708;9.706;2023-06-14T02:08:56;13.70;65.30
4433;DHT22;2229;48.708;9.706;2023-06-14T02:11:24;13.70;65.40
4433;DHT22;2229;48.708;9.706;2023-06-14T02:13:54;13.60;65.30
4433;DHT22;2229;48.708;9.706;2023-06-14T02:16:22;13.60;65.40
4433;DHT22;2229;48.708;9.706;2023-06-14T02:18:50;13.60;65.60
4433;DHT22;2229;48.708;9.706;2023-06-14T02:21:18;13.60;65.90
4433;DHT22;2229;48.708;9.706;2023-06-14T02:23:46;13.60;66.20
4433;DHT22;2229;48.708;9.706;2023-06-14T02:26:13;13.60;66.50
4433;DHT22;2229;48.708;9.706;2023-06-14T02:28:40;13.60;66.50
4433;DHT22;2229;48.708;9.706;2023-06-14T02:31:10;13.60;66.50
4433;DHT22;2229;48.708;9.706;2023-06-14T02:33:37;13.50;66.50
4433;DHT22;2229;48.708;9.706;2023-06-14T02:36:06;13.50;67.40
4433;DHT22;2229;48.708;9.706;2023-06-14T02:38:34;13.50;66.70
4433;DHT22;2229;48.708;9.706;2023-06-14T02:41:01;13.40;66.80
4433;DHT22;2229;48.708;9.706;2023-06-14T02:43:29;13.40;66.80
4433;DHT22;2229;48.708;9.706;2023-06-14T02:45:56;13.40;67.30
4433;DHT22;2229;48.708;9.706;2023-06-14T02:48:25;13.30;67.00
4433;DHT22;2229;48.708;9.706;2023-06-14T02:50:52;13.20;67.10
4433;DHT22;2229;48.708;9.706;2023-06-14T02:53:20;13.20;67.20
4433;DHT22;2229;48.708;9.706;2023-06-14T02:55:47;13.20;67.30
4433;DHT22;2229;48.708;9.706;2023-06-14T02:58:14;13.20;67.50
4433;DHT22;2229;48.708;9.706;2023-06-14T03:00:42;13.10;67.40
4433;DHT22;2229;48.708;9.706;2023-06-14T03:03:10;13.10;67.40
4433;DHT22;2229;48.708;9.706;2023-06-14T03:05:46;13.10;67.60
4433;DHT22;2229;48.708;9.706;2023-06-14T03:08:18;13.00;67.40
4433;DHT22;2229;48.708;9.706;2023-06-14T03:10:49;13.00;67.50
4433;DHT22;2229;48.708;9.706;2023-06-14T03:13:16;13.00;67.60
4433;DHT22;2229;48.708;9.706;2023-06-14T03:15:46;12.90;67.60
4433;DHT22;2229;48.708;9.706;2023-06-14T03:18:17;12.90;67.60
4433;DHT22;2229;48.708;9.706;2023-06-14T03:20:47;12.90;67.70
4433;DHT22;2229;48.708;9.706;2023-06-14T03:23:14;12.80;67.90
4433;DHT22;2229;48.708;9.706;2023-06-14T03:25:41;12.80;68.10
4433;DHT22;2229;48.708;9.706;2023-06-14T03:28:10;12.80;68.30
4433;DHT22;2229;48.708;9.706;2023-06-14T03:30:38;12.70;68.30
4433;DHT22;2229;48.708;9.706;2023-06-14T03:33:05;12.70;68.10
4433;DHT22;2229;48.708;9.706;2023-06-14T03:35:37;12.70;67.90
4433;DHT22;2229;48.708;9.706;2023-06-14T03:38:05;12.70;67.80
4433;DHT22;2229;48.708;9.706;2023-06-14T03:40:33;12.70;67.90
4433;DHT22;2229;48.708;9.706;2023-06-14T03:43:03;12.70;67.90
4433;DHT22;2229;48.708;9.706;2023-06-14T03:45:30;12.70;67.90
4433;DHT22;2229;48.708;9.706;2023-06-14T03:47:58;12.70;67.90
4433;DHT22;2229;48.708;9.706;2023-06-14T03:50:27;12.80;68.10
4433;DHT22;2229;48.708;9.706;2023-06-14T03:52:55;12.80;67.90
4433;DHT22;2229;48.708;9.706;2023-06-14T03:55:24;12.90;67.70
4433;DHT22;2229;48.708;9.706;2023-06-14T03:57:54;12.90;67.70
4433;DHT22;2229;48.708;9.706;2023-06-14T04:00:21;12.90;67.90
4433;DHT22;2229;48.708;9.706;2023-06-14T04:02:49;13.00;68.10
4433;DHT22;2229;48.708;9.706;2023-06-14T04:05:16;13.00;68.40
4433;DHT22;2229;48.708;9.706;2023-06-14T04:07:48;13.10;68.60
4433;DHT22;2229;48.708;9.706;2023-06-14T04:10:16;13.10;68.60
4433;DHT22;2229;48.708;9.706;2023-06-14T04:12:46;13.20;68.50
4433;DHT22;2229;48.708;9.706;2023-06-14T04:15:13;13.20;68.50
4433;DHT22;2229;48.708;9.706;2023-06-14T04:17:41;13.30;68.60
4433;DHT22;2229;48.708;9.706;2023-06-14T04:20:08;13.30;68.60
4433;DHT22;2229;48.708;9.706;2023-06-14T04:22:36;13.40;68.80
4433;DHT22;2229;48.708;9.706;2023-06-14T04:25:06;13.50;69.20
4433;DHT22;2229;48.708;9.706;2023-06-14T04:27:34;13.60;69.50
4433;DHT22;2229;48.708;9.706;2023-06-14T04:30:07;13.60;70.00
4433;DHT22;2229;48.708;9.706;2023-06-14T04:32:38;13.70;70.30
4433;DHT22;2229;48.708;9.706;2023-06-14T04:35:07;13.80;70.40
4433;DHT22;2229;48.708;9.706;2023-06-14T04:37:37;13.90;70.60
4433;DHT22;2229;48.708;9.706;2023-06-14T04:40:10;13.90;70.00
4433;DHT22;2229;48.708;9.706;2023-06-14T04:42:39;14.00;69.50
4433;DHT22;2229;48.708;9.706;2023-06-14T04:45:12;14.10;70.10
4433;DHT22;2229;48.708;9.706;2023-06-14T04:47:41;14.20;69.90
4433;DHT22;2229;48.708;9.706;2023-06-14T04:50:10;14.30;69.80
4433;DHT22;2229;48.708;9.706;2023-06-14T04:52:39;14.30;70.80
4433;DHT22;2229;48.708;9.706;2023-06-14T04:55:09;14.40;70.20
4433;DHT22;2229;48.708;9.706;2023-06-14T04:57:37;14.50;70.10
4433;DHT22;2229;48.708;9.706;2023-06-14T05:00:05;14.50;70.00
4433;DHT22;2229;48.708;9.706;2023-06-14T05:02:35;14.60;70.10
4433;DHT22;2229;48.708;9.706;2023-06-14T05:05:05;14.70;70.40
4433;DHT22;2229;48.708;9.706;2023-06-14T05:07:33;14.80;70.50
4433;DHT22;2229;48.708;9.706;2023-06-14T05:10:01;14.80;70.40
4433;DHT22;2229;48.708;9.706;2023-06-14T05:12:29;15.00;70.30
4433;DHT22;2229;48.708;9.706;2023-06-14T05:14:56;15.00;69.50
4433;DHT22;2229;48.708;9.706;2023-06-14T05:17:24;15.10;68.60
4433;DHT22;2229;48.708;9.706;2023-06-14T05:19:55;15.20;67.80
4433;DHT22;2229;48.708;9.706;2023-06-14T05:22:22;15.30;67.70
4433;DHT22;2229;48.708;9.706;2023-06-14T05:24:50;15.40;67.70
4433;DHT22;2229;48.708;9.706;2023-06-14T05:27:17;15.50;67.50
4433;DHT22;2229;48.708;9.706;2023-06-14T05:29:44;15.50;67.10
4433;DHT22;2229;48.708;9.706;2023-06-14T05:32:11;15.60;66.60
4433;DHT22;2229;48.708;9.706;2023-06-14T05:34:39;15.70;66.00
4433;DHT22;2229;48.708;9.706;2023-06-14T05:37:07;15.80;65.60
4433;DHT22;2229;48.708;9.706;2023-06-14T05:39:35;15.80;65.30
4433;DHT22;2229;48.708;9.706;2023-06-14T05:42:02;15.90;65.30
4433;DHT22;2229;48.708;9.706;2023-06-14T05:44:30;16.00;65.40
4433;DHT22;2229;48.708;9.706;2023-06-14T05:46:57;16.10;66.00
4433;DHT22;2229;48.708;9.706;2023-06-14T05:49:24;16.20;65.30
4433;DHT22;2229;48.708;9.706;2023-06-14T05:51:51;16.30;65.70
4433;DHT22;2229;48.708;9.706;2023-06-14T05:54:21;16.30;65.80
4433;DHT22;2229;48.708;9.706;2023-06-14T05:56:48;16.40;65.80
4433;DHT22;2229;48.708;9.706;2023-06-14T05:59:15;16.50;65.80
4433;DHT22;2229;48.708;9.706;2023-06-14T06:01:42;16.60;66.20
4433;DHT22;2229;48.708;9.706;2023-06-14T06:04:09;16.60;66.20
4433;DHT22;2229;48.708;9.706;2023-06-14T06:06:36;16.70;66.30
4433;DHT22;2229;48.708;9.706;2023-06-14T06:09:03;16.80;66.30
4433;DHT22;2229;48.708;9.706;2023-06-14T06:11:32;16.90;66.50
4433;DHT22;2229;48.708;9.706;2023-06-14T06:13:59;17.10;66.60
4433;DHT22;2229;48.708;9.706;2023-06-14T06:16:27;17.20;66.60
4433;DHT22;2229;48.708;9.706;2023-06-14T06:18:55;17.30;66.50
4433;DHT22;2229;48.708;9.706;2023-06-14T06:21:22;17.40;67.50
4433;DHT22;2229;48.708;9.706;2023-06-14T06:23:49;17.50;66.80
4433;DHT22;2229;48.708;9.706;2023-06-14T06:26:16;17.70;66.90
4433;DHT22;2229;48.708;9.706;2023-06-14T06:28:45;17.80;66.60
4433;DHT22;2229;48.708;9.706;2023-06-14T06:31:12;17.90;66.30
4433;DHT22;2229;48.708;9.706;2023-06-14T06:33:40;18.00;66.20
4433;DHT22;2229;48.708;9.706;2023-06-14T06:36:07;18.20;66.10
4433;DHT22;2229;48.708;9.706;2023-06-14T06:38:34;18.30;65.20
4433;DHT22;2229;48.708;9.706;2023-06-14T06:41:02;18.40;64.00
4433;DHT22;2229;48.708;9.706;2023-06-14T06:43:29;18.50;63.60
4433;DHT22;2229;48.708;9.706;2023-06-14T06:45:59;18.60;63.20
4433;DHT22;2229;48.708;9.706;2023-06-14T06:48:26;18.80;62.50
4433;DHT22;2229;48.708;9.706;2023-06-14T06:50:53;18.90;61.80
4433;DHT22;2229;48.708;9.706;2023-06-14T06:53:20;19.00;61.40
4433;DHT22;2229;48.708;9.706;2023-06-14T06:55:48;19.10;61.00
4433;DHT22;2229;48.708;9.706;2023-06-14T06:58:15;19.20;60.80
4433;DHT22;2229;48.708;9.706;2023-06-14T07:00:43;19.30;59.80
4433;DHT22;2229;48.708;9.706;2023-06-14T07:03:11;19.40;59.50
4433;DHT22;2229;48.708;9.706;2023-06-14T07:05:38;19.50;59.50
4433;DHT22;2229;48.708;9.706;2023-06-14T07:08:06;19.60;59.00
4433;DHT22;2229;48.708;9.706;2023-06-14T07:10:33;19.70;58.70
4433;DHT22;2229;48.708;9.706;2023-06-14T07:13:00;19.80;59.10
4433;DHT22;2229;48.708;9.706;2023-06-14T07:15:29;20.00;58.40
4433;DHT22;2229;48.708;9.706;2023-06-14T07:17:56;20.10;58.70
4433;DHT22;2229;48.708;9.706;2023-06-14T07:20:27;20.20;59.00
4433;DHT22;2229;48.708;9.706;2023-06-14T07:22:54;20.30;59.40
4433;DHT22;2229;48.708;9.706;2023-06-14T07:25:21;20.50;59.50
4433;DHT22;2229;48.708;9.706;2023-06-14T07:27:48;20.50;59.70
4433;DHT22;2229;48.708;9.706;2023-06-14T07:30:15;20.70;59.10
4433;DHT22;2229;48.708;9.706;2023-06-14T07:32:43;20.80;58.30
4433;DHT22;2229;48.708;9.706;2023-06-14T07:35:10;20.90;57.60
4433;DHT22;2229;48.708;9.706;2023-06-14T07:37:39;20.90;57.60
4433;DHT22;2229;48.708;9.706;2023-06-14T07:40:07;21.00;58.00
4433;DHT22;2229;48.708;9.706;2023-06-14T07:42:36;21.10;58.40
4433;DHT22;2229;48.708;9.706;2023-06-14T07:45:04;21.20;58.90
4433;DHT22;2229;48.708;9.706;2023-06-14T07:47:31;21.30;59.10
4433;DHT22;2229;48.708;9.706;2023-06-14T07:49:59;21.40;58.60
4433;DHT22;2229;48.708;9.706;2023-06-14T07:52:26;21.60;58.80
4433;DHT22;2229;48.708;9.706;2023-06-14T07:54:54;21.70;58.90
4433;DHT22;2229;48.708;9.706;2023-06-14T07:57:22;21.80;58.90
4433;DHT22;2229;48.708;9.706;2023-06-14T07:59:49;21.90;58.90
4433;DHT22;2229;48.708;9.706;2023-06-14T08:02:17;22.00;58.30
4433;DHT22;2229;48.708;9.706;2023-06-14T08:04:44;22.10;58.30
4433;DHT22;2229;48.708;9.706;2023-06-14T08:07:12;22.20;58.10
4433;DHT22;2229;48.708;9.706;2023-06-14T08:09:40;22.30;58.30
4433;DHT22;2229;48.708;9.706;2023-06-14T08:12:09;22.40;57.10
4433;DHT22;2229;48.708;9.706;2023-06-14T08:14:38;22.50;57.10
4433;DHT22;2229;48.708;9.706;2023-06-14T08:17:05;22.70;57.30
4433;DHT22;2229;48.708;9.706;2023-06-14T08:19:33;22.80;56.90
4433;DHT22;2229;48.708;9.706;2023-06-14T08:22:00;23.00;56.60
4433;DHT22;2229;48.708;9.706;2023-06-14T08:24:27;23.10;56.40
4433;DHT22;2229;48.708;9.706;2023-06-14T08:26:55;23.20;55.60
4433;DHT22;2229;48.708;9.706;2023-06-14T08:29:25;23.30;55.40
4433;DHT22;2229;48.708;9.706;2023-06-14T08:31:55;23.40;55.30
4433;DHT22;2229;48.708;9.706;2023-06-14T08:34:22;23.50;54.80
4433;DHT22;2229;48.708;9.706;2023-06-14T08:36:50;23.60;54.50
4433;DHT22;2229;48.708;9.706;2023-06-14T08:39:17;23.70;54.10
4433;DHT22;2229;48.708;9.706;2023-06-14T08:41:46;23.80;54.00
4433;DHT22;2229;48.708;9.706;2023-06-14T08:44:15;23.90;53.10
4433;DHT22;2229;48.708;9.706;2023-06-14T08:46:43;24.00;53.10
4433;DHT22;2229;48.708;9.706;2023-06-14T08:49:12;24.10;53.10
4433;DHT22;2229;48.708;9.706;2023-06-14T08:51:39;24.20;53.10
4433;DHT22;2229;48.708;9.706;2023-06-14T08:54:07;24.30;53.40
4433;DHT22;2229;48.708;9.706;2023-06-14T08:56:38;24.40;53.10
4433;DHT22;2229;48.708;9.706;2023-06-14T08:59:08;24.60;53.00
4433;DHT22;2229;48.708;9.706;2023-06-14T09:01:36;24.70;52.80
4433;DHT22;2229;48.708;9.706;2023-06-14T09:04:05;24.80;51.90
4433;DHT22;2229;48.708;9.706;2023-06-14T09:06:32;24.80;51.50
4433;DHT22;2229;48.708;9.706;2023-06-14T09:08:59;24.90;51.60
4433;DHT22;2229;48.708;9.706;2023-06-14T09:11:28;25.00;51.80
4433;DHT22;2229;48.708;9.706;2023-06-14T09:13:55;25.10;51.50
4433;DHT22;2229;48.708;9.706;2023-06-14T09:16:22;25.10;51.20
4433;DHT22;2229;48.708;9.706;2023-06-14T09:18:50;25.30;51.10
4433;DHT22;2229;48.708;9.706;2023-06-14T09:21:18;25.40;51.10
4433;DHT22;2229;48.708;9.706;2023-06-14T09:23:47;25.50;51.30
4433;DHT22;2229;48.708;9.706;2023-06-14T09:26:16;25.60;50.80
4433;DHT22;2229;48.708;9.706;2023-06-14T09:28:44;25.70;51.10
4433;DHT22;2229;48.708;9.706;2023-06-14T09:31:11;25.80;50.80
4433;DHT22;2229;48.708;9.706;2023-06-14T09:33:41;25.90;50.60
4433;DHT22;2229;48.708;9.706;2023-06-14T09:36:15;26.00;50.30
4433;DHT22;2229;48.708;9.706;2023-06-14T09:38:52;26.10;50.10
4433;DHT22;2229;48.708;9.706;2023-06-14T09:41:20;26.10;49.50
4433;DHT22;2229;48.708;9.706;2023-06-14T09:43:47;26.10;49.50
4433;DHT22;2229;48.708;9.706;2023-06-14T09:46:16;26.30;49.30
4433;DHT22;2229;48.708;9.706;2023-06-14T09:48:44;26.40;48.80
4433;DHT22;2229;48.708;9.706;2023-06-14T09:51:14;26.50;48.80
4433;DHT22;2229;48.708;9.706;2023-06-14T09:53:47;26.60;48.70
4433;DHT22;2229;48.708;9.706;2023-06-14T09:56:17;26.70;48.20
4433;DHT22;2229;48.708;9.706;2023-06-14T09:58:48;26.80;47.80
4433;DHT22;2229;48.708;9.706;2023-06-14T10:01:17;26.90;48.10
4433;DHT22;2229;48.708;9.706;2023-06-14T10:03:45;27.00;47.80
4433;DHT22;2229;48.708;9.706;2023-06-14T10:06:14;27.10;47.60
4433;DHT22;2229;48.708;9.706;2023-06-14T10:08:42;27.20;47.60
4433;DHT22;2229;48.708;9.706;2023-06-14T10:11:14;27.30;47.60
4433;DHT22;2229;48.708;9.706;2023-06-14T10:13:42;27.30;46.90
4433;DHT22;2229;48.708;9.706;2023-06-14T10:16:14;27.40;47.30
4433;DHT22;2229;48.708;9.706;2023-06-14T10:18:49;27.50;47.00
4433;DHT22;2229;48.708;9.706;2023-06-14T10:21:22;27.70;46.70
4433;DHT22;2229;48.708;9.706;2023-06-14T10:23:53;27.70;46.50
4433;DHT22;2229;48.708;9.706;2023-06-14T10:26:23;27.80;46.40
4433;DHT22;2229;48.708;9.706;2023-06-14T10:29:01;27.90;46.60
4433;DHT22;2229;48.708;9.706;2023-06-14T10:31:41;27.90;46.10
4433;DHT22;2229;48.708;9.706;2023-06-14T10:34:09;27.90;46.20
4433;DHT22;2229;48.708;9.706;2023-06-14T10:36:41;28.00;45.40
4433;DHT22;2229;48.708;9.706;2023-06-14T10:39:14;28.00;45.90
4433;DHT22;2229;48.708;9.706;2023-06-14T10:41:52;28.10;46.10
4433;DHT22;2229;48.708;9.706;2023-06-14T10:44:33;28.10;46.10
4433;DHT22;2229;48.708;9.706;2023-06-14T10:47:01;28.30;46.10
4433;DHT22;2229;48.708;9.706;2023-06-14T10:49:39;28.40;46.00
4433;DHT22;2229;48.708;9.706;2023-06-14T10:52:11;28.40;45.90
4433;DHT22;2229;48.708;9.706;2023-06-14T10:55:01;28.60;46.00
4433;DHT22;2229;48.708;9.706;2023-06-14T10:57:31;28.60;45.10
4433;DHT22;2229;48.708;9.706;2023-06-14T10:59:59;28.60;44.60
4433;DHT22;2229;48.708;9.706;2023-06-14T11:02:53;28.70;44.90
4433;DHT22;2229;48.708;9.706;2023-06-14T11:05:28;28.80;44.70
4433;DHT22;2229;48.708;9.706;2023-06-14T11:10:47;29.00;44.80
4433;DHT22;2229;48.708;9.706;2023-06-14T11:13:18;29.10;45.00
4433;DHT22;2229;48.708;9.706;2023-06-14T11:15:47;29.30;44.80
4433;DHT22;2229;48.708;9.706;2023-06-14T11:18:15;29.40;43.60
4433;DHT22;2229;48.708;9.706;2023-06-14T11:20:46;29.50;43.60
4433;DHT22;2229;48.708;9.706;2023-06-14T11:23:13;29.60;43.80
4433;DHT22;2229;48.708;9.706;2023-06-14T11:25:40;29.80;43.80
4433;DHT22;2229;48.708;9.706;2023-06-14T11:28:08;29.90;43.80
4433;DHT22;2229;48.708;9.706;2023-06-14T11:30:36;30.10;43.20
4433;DHT22;2229;48.708;9.706;2023-06-14T11:33:03;30.40;43.30
4433;DHT22;2229;48.708;9.706;2023-06-14T11:35:30;30.50;43.20
4433;DHT22;2229;48.708;9.706;2023-06-14T11:38:04;30.70;43.20
4433;DHT22;2229;48.708;9.706;2023-06-14T11:40:32;30.80;42.80
4433;DHT22;2229;48.708;9.706;2023-06-14T11:43:00;30.80;42.60
4433;DHT22;2229;48.708;9.706;2023-06-14T11:45:28;30.80;42.40
4433;DHT22;2229;48.708;9.706;2023-06-14T11:47:58;30.80;41.80
4433;DHT22;2229;48.708;9.706;2023-06-14T11:50:26;30.70;42.20
4433;DHT22;2229;48.708;9.706;2023-06-14T11:52:54;30.60;42.30
4433;DHT22;2229;48.708;9.706;2023-06-14T11:55:22;30.40;41.90
4433;DHT22;2229;48.708;9.706;2023-06-14T11:57:49;30.10;42.40
4433;DHT22;2229;48.708;9.706;2023-06-14T12:00:17;30.10;42.40
4433;DHT22;2229;48.708;9.706;2023-06-14T12:02:57;29.90;42.50
4433;DHT22;2229;48.708;9.706;2023-06-14T12:05:25;29.70;42.00
4433;DHT22;2229;48.708;9.706;2023-06-14T12:07:58;29.40;42.30
4433;DHT22;2229;48.708;9.706;2023-06-14T12:10:26;29.10;41.90
4433;DHT22;2229;48.708;9.706;2023-06-14T12:12:56;29.00;42.50
4433;DHT22;2229;48.708;9.706;2023-06-14T12:15:27;29.00;43.10
4433;DHT22;2229;48.708;9.706;2023-06-14T12:17:57;29.00;43.60
4433;DHT22;2229;48.708;9.706;2023-06-14T12:20:29;29.10;43.80
4433;DHT22;2229;48.708;9.706;2023-06-14T12:22:59;29.10;43.80
4433;DHT22;2229;48.708;9.706;2023-06-14T12:25:28;29.10;43.70
4433;DHT22;2229;48.708;9.706;2023-06-14T12:27:58;29.10;43.10
4433;DHT22;2229;48.708;9.706;2023-06-14T12:30:26;29.00;43.40
4433;DHT22;2229;48.708;9.706;2023-06-14T12:32:58;29.00;43.50
4433;DHT22;2229;48.708;9.706;2023-06-14T12:35:26;28.90;43.40
4433;DHT22;2229;48.708;9.706;2023-06-14T12:37:53;28.70;42.90
4433;DHT22;2229;48.708;9.706;2023-06-14T12:40:20;28.60;42.90
4433;DHT22;2229;48.708;9.706;2023-06-14T12:42:48;28.40;43.40
4433;DHT22;2229;48.708;9.706;2023-06-14T12:45:17;28.20;43.00
4433;DHT22;2229;48.708;9.706;2023-06-14T12:47:45;27.90;42.80
4433;DHT22;2229;48.708;9.706;2023-06-14T12:50:13;27.60;42.90
4433;DHT22;2229;48.708;9.706;2023-06-14T12:52:40;27.40;43.20
4433;DHT22;2229;48.708;9.706;2023-06-14T12:55:08;27.30;43.80
4433;DHT22;2229;48.708;9.706;2023-06-14T12:57:35;27.10;44.00
4433;DHT22;2229;48.708;9.706;2023-06-14T13:00:05;27.00;44.70
4433;DHT22;2229;48.708;9.706;2023-06-14T13:02:33;27.00;45.20
4433;DHT22;2229;48.708;9.706;2023-06-14T13:05:00;27.10;45.20
4433;DHT22;2229;48.708;9.706;2023-06-14T13:07:30;27.20;45.60
4433;DHT22;2229;48.708;9.706;2023-06-14T13:09:58;27.30;45.40
4433;DHT22;2229;48.708;9.706;2023-06-14T13:12:25;27.40;44.90
4433;DHT22;2229;48.708;9.706;2023-06-14T13:14:53;27.30;44.30
4433;DHT22;2229;48.708;9.706;2023-06-14T13:17:20;27.20;44.30
4433;DHT22;2229;48.708;9.706;2023-06-14T13:19:47;27.10;44.30
4433;DHT22;2229;48.708;9.706;2023-06-14T13:22:14;26.90;44.50
4433;DHT22;2229;48.708;9.706;2023-06-14T13:24:43;26.90;44.60
4433;DHT22;2229;48.708;9.706;2023-06-14T13:27:29;26.80;44.60
4433;DHT22;2229;48.708;9.706;2023-06-14T13:29:56;26.70;44.70
4433;DHT22;2229;48.708;9.706;2023-06-14T13:32:23;26.70;44.90
4433;DHT22;2229;48.708;9.706;2023-06-14T13:34:51;26.70;44.80
4433;DHT22;2229;48.708;9.706;2023-06-14T13:37:18;26.60;45.20
4433;DHT22;2229;48.708;9.706;2023-06-14T13:39:47;26.60;45.20
4433;DHT22;2229;48.708;9.706;2023-06-14T13:42:14;26.60;44.90
4433;DHT22;2229;48.708;9.706;2023-06-14T13:44:41;26.60;45.10
4433;DHT22;2229;48.708;9.706;2023-06-14T13:47:08;26.60;45.70
4433;DHT22;2229;48.708;9.706;2023-06-14T13:49:35;26.60;45.10
4433;DHT22;2229;48.708;9.706;2023-06-14T13:52:04;26.60;44.90
4433;DHT22;2229;48.708;9.706;2023-06-14T13:54:32;26.80;44.80
4433;DHT22;2229;48.708;9.706;2023-06-14T13:57:01;27.00;45.00
4433;DHT22;2229;48.708;9.706;2023-06-14T13:59:28;27.20;44.50
4433;DHT22;2229;48.708;9.706;2023-06-14T14:01:55;27.50;44.50
4433;DHT22;2229;48.708;9.706;2023-06-14T14:04:22;27.70;44.80
4433;DHT22;2229;48.708;9.706;2023-06-14T14:06:49;27.90;44.60
4433;DHT22;2229;48.708;9.706;2023-06-14T14:09:17;28.10;45.50
4433;DHT22;2229;48.708;9.706;2023-06-14T14:11:44;28.40;45.00
4433;DHT22;2229;48.708;9.706;2023-06-14T14:14:13;28.50;44.40
4433;DHT22;2229;48.708;9.706;2023-06-14T14:16:40;28.60;43.90
4433;DHT22;2229;48.708;9.706;2023-06-14T14:19:07;28.70;44.10
4433;DHT22;2229;48.708;9.706;2023-06-14T14:21:36;28.70;44.00
4433;DHT22;2229;48.708;9.706;2023-06-14T14:24:04;28.60;43.50
4433;DHT22;2229;48.708;9.706;2023-06-14T14:26:31;28.60;43.70
4433;DHT22;2229;48.708;9.706;2023-06-14T14:28:59;28.60;44.00
4433;DHT22;2229;48.708;9.706;2023-06-14T14:31:30;28.60;43.90
4433;DHT22;2229;48.708;9.706;2023-06-14T14:33:57;28.60;44.10
4433;DHT22;2229;48.708;9.706;2023-06-14T14:36:24;28.60;43.80
4433;DHT22;2229;48.708;9.706;2023-06-14T14:38:52;28.60;43.60
4433;DHT22;2229;48.708;9.706;2023-06-14T14:41:19;28.60;43.40
4433;DHT22;2229;48.708;9.706;2023-06-14T14:43:46;28.60;44.20
4433;DHT22;2229;48.708;9.706;2023-06-14T14:46:13;28.60;43.70
4433;DHT22;2229;48.708;9.706;2023-06-14T14:48:43;28.50;43.60
4433;DHT22;2229;48.708;9.706;2023-06-14T14:51:11;28.50;43.70
4433;DHT22;2229;48.708;9.706;2023-06-14T14:53:38;28.50;44.20
4433;DHT22;2229;48.708;9.706;2023-06-14T14:56:07;28.40;43.90
4433;DHT22;2229;48.708;9.706;2023-06-14T14:58:35;28.40;43.90
4433;DHT22;2229;48.708;9.706;2023-06-14T15:01:02;28.30;43.70
4433;DHT22;2229;48.708;9.706;2023-06-14T15:03:31;28.20;43.80
4433;DHT22;2229;48.708;9.706;2023-06-14T15:06:00;28.00;43.80
4433;DHT22;2229;48.708;9.706;2023-06-14T15:08:27;27.90;43.60
4433;DHT22;2229;48.708;9.706;2023-06-14T15:10:54;27.80;43.90
4433;DHT22;2229;48.708;9.706;2023-06-14T15:13:21;27.80;44.50
4433;DHT22;2229;48.708;9.706;2023-06-14T15:15:49;27.80;44.30
4433;DHT22;2229;48.708;9.706;2023-06-14T15:18:17;27.90;44.30
4433;DHT22;2229;48.708;9.706;2023-06-14T15:20:46;27.90;44.30
4433;DHT22;2229;48.708;9.706;2023-06-14T15:23:14;27.90;44.50
4433;DHT22;2229;48.708;9.706;2023-06-14T15:25:46;27.90;44.70
4433;DHT22;2229;48.708;9.706;2023-06-14T15:28:14;27.90;44.60
4433;DHT22;2229;48.708;9.706;2023-06-14T15:30:41;27.90;44.60
4433;DHT22;2229;48.708;9.706;2023-06-14T15:33:08;27.80;44.40
4433;DHT22;2229;48.708;9.706;2023-06-14T15:35:35;27.70;44.40
4433;DHT22;2229;48.708;9.706;2023-06-14T15:38:02;27.70;44.20
4433;DHT22;2229;48.708;9.706;2023-06-14T15:40:31;27.60;44.30
4433;DHT22;2229;48.708;9.706;2023-06-14T15:42:58;27.50;44.40
4433;DHT22;2229;48.708;9.706;2023-06-14T15:45:26;27.40;44.60
4433;DHT22;2229;48.708;9.706;2023-06-14T15:47:54;27.30;44.70
4433;DHT22;2229;48.708;9.706;2023-06-14T15:50:21;27.30;45.10
4433;DHT22;2229;48.708;9.706;2023-06-14T15:52:48;27.20;45.10
4433;DHT22;2229;48.708;9.706;2023-06-14T15:55:16;27.20;44.80
4433;DHT22;2229;48.708;9.706;2023-06-14T15:57:45;27.10;45.10
4433;DHT22;2229;48.708;9.706;2023-06-14T16:00:14;27.10;45.00
4433;DHT22;2229;48.708;9.706;2023-06-14T16:02:41;27.00;44.80
4433;DHT22;2229;48.708;9.706;2023-06-14T16:05:09;27.00;44.70
4433;DHT22;2229;48.708;9.706;2023-06-14T16:07:36;27.00;45.10
4433;DHT22;2229;48.708;9.706;2023-06-14T16:10:04;27.00;45.10
4433;DHT22;2229;48.708;9.706;2023-06-14T16:12:31;26.90;45.20
4433;DHT22;2229;48.708;9.706;2023-06-14T16:15:00;26.90;46.10